Lutherville Timonium, Maryland
Current Conditions -  °F | °C
As of 1:33 AM on Friday 19 Dec 2014 (Local Time) from KMTN Reporting Station
Overcast Overcast  
Wind Chill: 31°   Ceiling: 3300
Heat Index: 36°   Visibility: 10mi
Dew Point: 27°   Wind: 6mph
Humidity: 70%   Direction: 260°W
Pressure: 30.1"   Gusts: NA
Location:  39.4211°N, 76.6266°W
Report Text: KMTN 190633Z AUTO 26005KT 10SM OVC033 02/M03 A3010 RMK AO2
Loading
Personal Weather Stations






























Interactive Weather Map New forecast layout! Learn more

10-Day Weather Forecast

Advertisements
Track Severe Weather on mobile